createdAt,value
2018-05-14T00:00:09.330Z,962.54
2018-05-14T00:01:09.380Z,962.56
2018-05-14T00:02:09.423Z,962.54
2018-05-14T00:03:09.499Z,962.57
2018-05-14T00:04:09.542Z,962.66
2018-05-14T00:05:09.565Z,962.65
2018-05-14T00:06:09.615Z,962.66
2018-05-14T00:07:09.661Z,962.71
2018-05-14T00:08:09.712Z,962.72
2018-05-14T00:09:09.794Z,962.68
2018-05-14T00:10:09.804Z,962.72
2018-05-14T00:11:09.859Z,962.75
2018-05-14T00:12:09.906Z,962.74
2018-05-14T00:13:09.947Z,962.74
2018-05-14T00:14:10.028Z,962.74
2018-05-14T00:15:10.042Z,962.77
2018-05-14T00:16:10.089Z,962.77
2018-05-14T00:17:10.141Z,962.78
2018-05-14T00:18:10.185Z,962.80
2018-05-14T00:19:10.259Z,962.79
2018-05-14T00:20:10.316Z,962.79
2018-05-14T00:21:10.325Z,962.79
2018-05-14T00:22:10.379Z,962.83
2018-05-14T00:23:10.422Z,962.83
2018-05-14T00:24:10.470Z,962.78
2018-05-14T00:25:10.541Z,962.83
2018-05-14T00:26:10.601Z,962.83
2018-05-14T00:27:10.617Z,962.82
2018-05-14T00:28:10.663Z,962.82
2018-05-14T00:29:10.707Z,962.80
2018-05-14T00:30:10.756Z,962.84
2018-05-14T00:31:10.829Z,962.85
2018-05-14T00:32:10.850Z,962.81
2018-05-14T00:33:10.913Z,962.86
2018-05-14T00:34:10.950Z,962.86
2018-05-14T00:35:10.995Z,962.83
2018-05-14T00:36:11.067Z,962.84
2018-05-14T00:37:12.031Z,962.83
2018-05-14T00:38:11.135Z,962.81
2018-05-14T00:39:11.186Z,962.86
2018-05-14T00:40:11.230Z,962.78
2018-05-14T00:41:11.304Z,962.83
2018-05-14T00:42:11.348Z,962.81
2018-05-14T00:43:11.371Z,962.75
2018-05-14T00:44:11.421Z,962.75
2018-05-14T00:45:11.469Z,962.72
2018-05-14T00:46:11.540Z,962.76
2018-05-14T00:47:11.565Z,962.69
2018-05-14T00:48:11.611Z,962.70
2018-05-14T00:49:11.656Z,962.67
2018-05-14T00:50:11.711Z,962.62
2018-05-14T00:51:11.784Z,962.60
2018-05-14T00:52:11.803Z,962.56
2018-05-14T00:53:11.846Z,962.52
2018-05-14T00:54:11.894Z,962.46
2018-05-14T00:55:11.945Z,962.42
2018-05-14T00:56:12.015Z,962.39
2018-05-14T00:57:12.037Z,962.37
2018-05-14T00:58:12.108Z,962.38
2018-05-14T00:59:12.138Z,962.37
2018-05-14T01:00:12.182Z,962.38
2018-05-14T01:01:12.228Z,962.30
2018-05-14T01:02:12.300Z,962.26
2018-05-14T01:03:12.324Z,962.29
2018-05-14T01:04:12.371Z,962.26
2018-05-14T01:05:12.417Z,962.32
2018-05-14T01:06:12.465Z,962.32
2018-05-14T01:07:12.537Z,962.35
2018-05-14T01:08:12.591Z,962.42
2018-05-14T01:09:12.608Z,962.50
2018-05-14T01:10:12.654Z,962.55
2018-05-14T01:11:12.702Z,962.60
2018-05-14T01:12:12.749Z,962.56
2018-05-14T01:13:12.841Z,962.57
2018-05-14T01:14:12.844Z,962.53
2018-05-14T01:15:12.894Z,962.54
2018-05-14T01:16:12.950Z,962.58
2018-05-14T01:17:12.986Z,962.60
2018-05-14T01:18:13.074Z,962.65
2018-05-14T01:19:13.083Z,962.65
2018-05-14T01:20:13.132Z,962.67
2018-05-14T01:21:13.180Z,962.70
2018-05-14T01:22:13.227Z,962.69
2018-05-14T01:23:13.306Z,962.72
2018-05-14T01:24:13.321Z,962.70
2018-05-14T01:25:13.367Z,962.68
2018-05-14T01:26:13.418Z,962.71
2018-05-14T01:27:13.464Z,962.69
2018-05-14T01:28:13.616Z,962.63
2018-05-14T01:29:13.560Z,962.67
2018-05-14T01:30:13.607Z,962.65
2018-05-14T01:31:13.678Z,962.67
2018-05-14T01:32:13.700Z,962.63
2018-05-14T01:33:13.777Z,962.61
2018-05-14T01:34:13.795Z,962.62
2018-05-14T01:35:13.879Z,962.67
2018-05-14T01:36:13.892Z,962.62
2018-05-14T01:37:13.937Z,962.63
2018-05-14T01:38:13.988Z,962.63
2018-05-14T01:39:14.058Z,962.67
2018-05-14T01:40:14.111Z,962.69
2018-05-14T01:41:14.130Z,962.67
2018-05-14T01:42:14.176Z,962.62
2018-05-14T01:43:14.223Z,962.62
2018-05-14T01:44:14.313Z,962.62
2018-05-14T01:45:14.318Z,962.63
2018-05-14T01:46:14.372Z,962.62
2018-05-14T01:47:14.413Z,962.63
2018-05-14T01:48:14.463Z,962.64
2018-05-14T01:49:14.539Z,962.63
2018-05-14T01:50:14.558Z,962.62
2018-05-14T01:51:14.611Z,962.63
2018-05-14T01:52:14.653Z,962.53
2018-05-14T01:53:14.698Z,962.59
2018-05-14T01:54:14.776Z,962.55
2018-05-14T01:55:14.795Z,962.52
2018-05-14T01:56:14.846Z,962.51
2018-05-14T01:57:14.888Z,962.50
2018-05-14T01:58:14.939Z,962.53
2018-05-14T01:59:15.010Z,962.55
2018-05-14T02:00:15.057Z,962.52
2018-05-14T02:01:15.097Z,962.51
2018-05-14T02:02:15.130Z,962.48
2018-05-14T02:03:15.183Z,962.48
2018-05-14T02:04:15.222Z,962.43
2018-05-14T02:05:15.298Z,962.40
2018-05-14T02:06:15.320Z,962.37
2018-05-14T02:07:15.364Z,962.32
2018-05-14T02:08:15.411Z,962.34
2018-05-14T02:09:15.459Z,962.31
2018-05-14T02:10:15.539Z,962.30
2018-05-14T02:11:15.555Z,962.32
2018-05-14T02:12:15.605Z,962.33
2018-05-14T02:13:15.651Z,962.31
2018-05-14T02:14:15.699Z,962.32
2018-05-14T02:15:16.079Z,962.30
2018-05-14T02:16:15.795Z,962.31
2018-05-14T02:17:15.866Z,962.34
2018-05-14T02:18:15.896Z,962.32
2018-05-14T02:19:15.943Z,962.30
2018-05-14T02:20:16.010Z,962.34
2018-05-14T02:21:16.031Z,962.35
2018-05-14T02:22:16.113Z,962.36
2018-05-14T02:23:16.134Z,962.36
2018-05-14T02:24:16.174Z,962.38
2018-05-14T02:25:16.220Z,962.35
2018-05-14T02:26:16.269Z,962.36
2018-05-14T02:27:16.347Z,962.33
2018-05-14T02:28:16.363Z,962.32
2018-05-14T02:29:16.442Z,962.30
2018-05-14T02:30:16.459Z,962.32
2018-05-14T02:31:16.507Z,962.28
2018-05-14T02:32:16.599Z,962.25
2018-05-14T02:33:16.607Z,962.23
2018-05-14T02:34:16.652Z,962.24
2018-05-14T02:35:16.699Z,962.22
2018-05-14T02:36:16.744Z,962.26
2018-05-14T02:37:16.825Z,962.26
2018-05-14T02:38:16.840Z,962.29
2018-05-14T02:39:16.895Z,962.32
2018-05-14T02:40:16.935Z,962.29
2018-05-14T02:41:16.989Z,962.31
2018-05-14T02:42:17.062Z,962.28
2018-05-14T02:43:17.078Z,962.27
2018-05-14T02:44:17.124Z,962.27
2018-05-14T02:45:17.182Z,962.29
2018-05-14T02:46:17.221Z,962.33
2018-05-14T02:47:17.313Z,962.32
2018-05-14T02:48:17.318Z,962.33
2018-05-14T02:49:17.365Z,962.34
2018-05-14T02:50:17.409Z,962.35
2018-05-14T02:51:17.457Z,962.33
2018-05-14T02:52:17.538Z,962.35
2018-05-14T02:53:17.556Z,962.33
2018-05-14T02:54:17.600Z,962.37
2018-05-14T02:55:17.649Z,962.35
2018-05-14T02:56:17.696Z,962.37
2018-05-14T02:57:17.768Z,962.39
2018-05-14T02:58:17.789Z,962.36
2018-05-14T02:59:17.863Z,962.38
2018-05-14T03:00:17.886Z,962.37
2018-05-14T03:01:17.942Z,962.42
2018-05-14T03:02:17.979Z,962.41
2018-05-14T03:03:18.066Z,962.42
2018-05-14T03:04:18.076Z,962.40
2018-05-14T03:05:18.123Z,962.39
2018-05-14T03:06:18.173Z,962.43
2018-05-14T03:07:18.222Z,962.40
2018-05-14T03:08:18.293Z,962.40
2018-05-14T03:09:18.344Z,962.42
2018-05-14T03:10:18.395Z,962.37
2018-05-14T03:11:18.411Z,962.38
2018-05-14T03:12:18.457Z,962.36
2018-05-14T03:13:18.505Z,962.35
2018-05-14T03:14:18.574Z,962.38
2018-05-14T03:15:18.600Z,962.39
2018-05-14T03:16:18.653Z,962.41
2018-05-14T03:17:18.696Z,962.39
2018-05-14T03:18:18.742Z,962.43
2018-05-14T03:19:18.814Z,962.42
2018-05-14T03:20:18.839Z,962.39
2018-05-14T03:21:18.883Z,962.39
2018-05-14T03:22:18.931Z,962.38
2018-05-14T03:23:18.978Z,962.39
2018-05-14T03:24:19.057Z,962.36
2018-05-14T03:25:19.073Z,962.35
2018-05-14T03:26:19.152Z,962.36
2018-05-14T03:27:19.168Z,962.34
2018-05-14T03:28:19.217Z,962.32
2018-05-14T03:29:19.262Z,962.32
2018-05-14T03:30:19.309Z,962.31
2018-05-14T03:31:19.403Z,962.30
2018-05-14T03:32:19.407Z,962.26
2018-05-14T03:33:19.454Z,962.22
2018-05-14T03:34:19.500Z,962.24
2018-05-14T03:35:19.550Z,962.24
2018-05-14T03:36:19.635Z,962.23
2018-05-14T03:37:19.645Z,962.29
2018-05-14T03:38:19.689Z,962.26
2018-05-14T03:39:19.738Z,962.28
2018-05-14T03:40:19.784Z,962.29
2018-05-14T03:41:19.859Z,962.27
2018-05-14T03:42:19.880Z,962.30
2018-05-14T03:43:19.931Z,962.25
2018-05-14T03:44:19.975Z,962.25
2018-05-14T03:45:20.022Z,962.21
2018-05-14T03:46:20.092Z,962.20
2018-05-14T03:47:20.142Z,962.20
2018-05-14T03:48:20.166Z,962.17
2018-05-14T03:49:20.213Z,962.23
2018-05-14T03:50:20.260Z,962.27
2018-05-14T03:51:20.348Z,962.23
2018-05-14T03:52:20.358Z,962.26
2018-05-14T03:53:20.402Z,962.27
2018-05-14T03:54:20.452Z,962.28
2018-05-14T03:55:20.497Z,962.29
2018-05-14T03:56:20.569Z,962.32
2018-05-14T03:57:20.624Z,962.31
2018-05-14T03:58:20.638Z,962.35
2018-05-14T03:59:20.686Z,962.35
2018-05-14T04:00:20.734Z,962.37
2018-05-14T04:01:20.792Z,962.44
2018-05-14T04:02:20.895Z,962.44
2018-05-14T04:03:20.903Z,962.47
2018-05-14T04:04:20.928Z,962.50
2018-05-14T04:05:20.971Z,962.51
2018-05-14T04:06:21.022Z,962.50
2018-05-14T04:07:21.067Z,962.50
2018-05-14T04:08:21.204Z,962.47
2018-05-14T04:09:21.162Z,962.48
2018-05-14T04:10:21.212Z,962.49
2018-05-14T04:11:21.258Z,962.50
2018-05-14T04:12:21.305Z,962.47
2018-05-14T04:13:21.376Z,962.46
2018-05-14T04:14:21.398Z,962.51
2018-05-14T04:15:21.449Z,962.52
2018-05-14T04:16:21.500Z,962.55
2018-05-14T04:17:21.542Z,962.55
2018-05-14T04:18:21.619Z,962.53
2018-05-14T04:19:21.636Z,962.52
2018-05-14T04:20:21.683Z,962.50
2018-05-14T04:21:21.733Z,962.53
2018-05-14T04:22:21.778Z,962.47
2018-05-14T04:23:21.849Z,962.47
2018-05-14T04:24:21.899Z,962.45
2018-05-14T04:25:21.928Z,962.47
2018-05-14T04:26:21.970Z,962.46
2018-05-14T04:27:22.015Z,962.42
2018-05-14T04:28:22.097Z,962.45
2018-05-14T04:29:22.111Z,962.49
2018-05-14T04:30:22.214Z,962.46
2018-05-14T04:31:22.212Z,962.48
2018-05-14T04:32:22.253Z,962.47
2018-05-14T04:33:22.330Z,962.42
2018-05-14T04:34:22.351Z,962.41
2018-05-14T04:35:22.396Z,962.44
2018-05-14T04:36:22.445Z,962.42
2018-05-14T04:37:22.574Z,962.38
2018-05-14T04:38:22.563Z,962.40
2018-05-14T04:39:22.608Z,962.39
2018-05-14T04:40:22.636Z,962.38
2018-05-14T04:41:22.686Z,962.37
2018-05-14T04:42:22.734Z,962.34
2018-05-14T04:43:22.775Z,962.31
2018-05-14T04:44:22.855Z,962.31
2018-05-14T04:45:22.872Z,962.28
2018-05-14T04:46:22.925Z,962.29
2018-05-14T04:47:22.966Z,962.31
2018-05-14T04:48:23.015Z,962.28
2018-05-14T04:49:23.096Z,962.27
2018-05-14T04:50:23.111Z,962.28
2018-05-14T04:51:23.156Z,962.27
2018-05-14T04:52:23.202Z,962.34
2018-05-14T04:53:23.251Z,962.32
2018-05-14T04:54:23.339Z,962.32
2018-05-14T04:55:23.348Z,962.32
2018-05-14T04:56:23.394Z,962.37
2018-05-14T04:57:23.440Z,962.38
2018-05-14T04:58:23.492Z,962.36
2018-05-14T04:59:23.561Z,962.35
2018-05-14T05:00:23.607Z,962.37
2018-05-14T05:01:23.636Z,962.35
2018-05-14T05:02:23.701Z,962.38
2018-05-14T05:03:23.726Z,962.37
2018-05-14T05:04:23.773Z,962.34
2018-05-14T05:05:23.845Z,962.39
2018-05-14T05:06:23.871Z,962.32
2018-05-14T05:07:23.917Z,962.35
2018-05-14T05:08:23.965Z,962.34
2018-05-14T05:09:24.011Z,962.38
2018-05-14T05:10:24.098Z,962.37
2018-05-14T05:11:24.206Z,962.37
2018-05-14T05:12:24.156Z,962.39
2018-05-14T05:13:24.201Z,962.38
2018-05-14T05:14:24.255Z,962.34
2018-05-14T05:15:24.324Z,962.34
2018-05-14T05:16:24.369Z,962.34
2018-05-14T05:17:24.392Z,962.32
2018-05-14T05:18:24.440Z,962.35
2018-05-14T05:19:24.490Z,962.27
2018-05-14T05:20:24.540Z,962.30
2018-05-14T05:21:24.614Z,962.32
2018-05-14T05:22:24.640Z,962.32
2018-05-14T05:23:24.679Z,962.26
2018-05-14T05:24:24.725Z,962.30
2018-05-14T05:25:24.771Z,962.27
2018-05-14T05:26:24.862Z,962.25
2018-05-14T05:27:24.869Z,962.29
2018-05-14T05:28:24.987Z,962.28
2018-05-14T05:29:24.965Z,962.32
2018-05-14T05:30:25.013Z,962.34
2018-05-14T05:31:25.095Z,962.29
2018-05-14T05:32:25.107Z,962.33
2018-05-14T05:33:25.153Z,962.37
2018-05-14T05:34:25.284Z,962.34
2018-05-14T05:35:25.312Z,962.36
2018-05-14T05:36:25.328Z,962.33
2018-05-14T05:37:25.353Z,962.37
2018-05-14T05:38:25.392Z,962.37
2018-05-14T05:39:25.448Z,962.41
2018-05-14T05:40:25.488Z,962.39
2018-05-14T05:41:25.558Z,962.42
2018-05-14T05:42:25.608Z,962.36
2018-05-14T05:43:25.632Z,962.34
2018-05-14T05:44:25.684Z,962.33
2018-05-14T05:45:25.796Z,962.38
2018-05-14T05:46:25.774Z,962.33
2018-05-14T05:47:25.855Z,962.39
2018-05-14T05:48:25.873Z,962.39
2018-05-14T05:49:25.919Z,962.40
2018-05-14T05:50:25.965Z,962.40
2018-05-14T05:51:26.019Z,962.38
2018-05-14T05:52:26.085Z,962.39
2018-05-14T05:53:26.121Z,962.43
2018-05-14T05:54:26.157Z,962.44
2018-05-14T05:55:26.203Z,962.46
2018-05-14T05:56:26.251Z,962.52
2018-05-14T05:57:26.327Z,962.50
2018-05-14T05:58:26.347Z,962.51
2018-05-14T05:59:26.396Z,962.49
2018-05-14T06:00:26.443Z,962.44
2018-05-14T06:01:26.490Z,962.49
2018-05-14T06:02:26.571Z,962.45
2018-05-14T06:03:26.586Z,962.46
2018-05-14T06:04:26.636Z,962.45
2018-05-14T06:05:26.682Z,962.46
2018-05-14T06:06:26.728Z,962.47
2018-05-14T06:07:26.798Z,962.46
2018-05-14T06:08:26.858Z,962.42
2018-05-14T06:09:26.883Z,962.47
2018-05-14T06:10:26.923Z,962.43
2018-05-14T06:11:26.968Z,962.46
2018-05-14T06:12:27.015Z,962.45
2018-05-14T06:13:27.104Z,962.44
2018-05-14T06:14:27.111Z,962.43
2018-05-14T06:15:27.183Z,962.44
2018-05-14T06:16:27.208Z,962.42
2018-05-14T06:17:27.255Z,962.41
2018-05-14T06:18:27.333Z,962.41
2018-05-14T06:19:27.375Z,962.40
2018-05-14T06:20:27.398Z,962.41
2018-05-14T06:21:27.445Z,962.42
2018-05-14T06:22:27.571Z,962.44
2018-05-14T06:23:27.571Z,962.45
2018-05-14T06:24:27.613Z,962.43
2018-05-14T06:25:27.636Z,962.43
2018-05-14T06:26:27.687Z,962.46
2018-05-14T06:27:27.735Z,962.49
2018-05-14T06:28:27.780Z,962.48
2018-05-14T06:29:27.854Z,962.47
2018-05-14T06:30:27.878Z,962.48
2018-05-14T06:31:27.927Z,962.49
2018-05-14T06:32:27.971Z,962.51
2018-05-14T06:33:28.020Z,962.49
2018-05-14T06:34:28.090Z,962.50
2018-05-14T06:35:28.188Z,962.50
2018-05-14T06:36:28.161Z,962.46
2018-05-14T06:37:28.214Z,962.51
2018-05-14T06:38:28.259Z,962.46
2018-05-14T06:39:28.308Z,962.52
2018-05-14T06:40:28.385Z,962.51
2018-05-14T06:41:28.405Z,962.53
2018-05-14T06:42:28.449Z,962.54
2018-05-14T06:43:28.500Z,962.56
2018-05-14T06:44:28.595Z,962.53
2018-05-14T06:45:28.633Z,962.58
2018-05-14T06:46:28.642Z,962.57
2018-05-14T06:47:28.698Z,962.57
2018-05-14T06:48:28.741Z,962.58
2018-05-14T06:49:28.986Z,962.60
2018-05-14T06:50:28.963Z,962.62
2018-05-14T06:51:28.881Z,962.61
2018-05-14T06:52:28.930Z,962.62
2018-05-14T06:53:28.984Z,962.64
2018-05-14T06:54:29.026Z,962.66
2018-05-14T06:55:29.097Z,962.68
2018-05-14T06:56:29.148Z,962.67
2018-05-14T06:57:29.176Z,962.63
2018-05-14T06:58:29.217Z,962.64
2018-05-14T06:59:29.281Z,962.66
2018-05-14T07:00:29.335Z,962.71
2018-05-14T07:01:29.404Z,962.70
2018-05-14T07:02:29.414Z,962.72
2018-05-14T07:03:29.456Z,962.73
2018-05-14T07:04:29.507Z,962.72
2018-05-14T07:05:29.554Z,962.72
2018-05-14T07:06:29.636Z,962.72
2018-05-14T07:07:29.646Z,962.72
2018-05-14T07:08:29.695Z,962.69
2018-05-14T07:09:29.746Z,962.69
2018-05-14T07:10:29.791Z,962.64
2018-05-14T07:11:29.885Z,962.62
2018-05-14T07:12:29.887Z,962.68
2018-05-14T07:13:29.933Z,962.65
2018-05-14T07:14:29.984Z,962.67
2018-05-14T07:15:30.031Z,962.67
2018-05-14T07:16:30.105Z,962.70
2018-05-14T07:17:30.173Z,962.72
2018-05-14T07:18:30.173Z,962.71
2018-05-14T07:19:30.226Z,962.66
2018-05-14T07:20:30.271Z,962.72
2018-05-14T07:21:30.319Z,962.70
2018-05-14T07:22:30.389Z,962.74
2018-05-14T07:23:30.414Z,962.73
2018-05-14T07:24:30.464Z,962.72
2018-05-14T07:25:30.747Z,962.78
2018-05-14T07:26:30.560Z,962.76
2018-05-14T07:27:30.631Z,962.78
2018-05-14T07:28:30.682Z,962.80
2018-05-14T07:29:30.701Z,962.77
2018-05-14T07:30:30.753Z,962.80
2018-05-14T07:31:30.803Z,962.80
2018-05-14T07:32:30.855Z,962.77
2018-05-14T07:33:30.919Z,962.74
2018-05-14T07:34:30.944Z,962.78
2018-05-14T07:35:30.992Z,962.73
2018-05-14T07:36:31.040Z,962.76
2018-05-14T07:37:31.086Z,962.74
2018-05-14T07:38:31.168Z,962.74
2018-05-14T07:39:31.187Z,962.74
2018-05-14T07:40:31.247Z,962.76
2018-05-14T07:41:31.280Z,962.72
2018-05-14T07:42:31.327Z,962.81
2018-05-14T07:43:31.412Z,962.77
2018-05-14T07:44:31.427Z,962.82
2018-05-14T07:45:31.474Z,962.87
2018-05-14T07:46:31.524Z,962.81
2018-05-14T07:47:31.574Z,962.85
2018-05-14T07:48:31.664Z,962.83
2018-05-14T07:49:31.671Z,962.79
2018-05-14T07:50:31.715Z,962.79
2018-05-14T07:51:31.764Z,962.78
2018-05-14T07:52:31.813Z,962.80
2018-05-14T07:53:31.894Z,962.82
2018-05-14T07:54:31.914Z,962.86
2018-05-14T07:55:31.958Z,962.88
2018-05-14T07:56:32.009Z,962.87
2018-05-14T07:57:32.057Z,962.91
2018-05-14T07:58:32.128Z,962.94
2018-05-14T07:59:32.178Z,962.86
2018-05-14T08:00:32.201Z,962.89
2018-05-14T08:01:32.257Z,962.85
2018-05-14T08:02:32.301Z,962.87
2018-05-14T08:03:32.346Z,962.88
2018-05-14T08:04:32.419Z,962.88
2018-05-14T08:05:32.473Z,962.86
2018-05-14T08:06:32.492Z,962.89
2018-05-14T08:07:32.541Z,962.88
2018-05-14T08:08:32.592Z,962.94
2018-05-14T08:09:32.641Z,962.98
2018-05-14T08:10:32.713Z,962.95
2018-05-14T08:11:32.738Z,962.97
2018-05-14T08:12:32.785Z,962.98
2018-05-14T08:13:32.831Z,962.98
2018-05-14T08:14:32.886Z,962.99
2018-05-14T08:15:32.953Z,963.02
2018-05-14T08:16:33.003Z,963.01
2018-05-14T08:17:33.028Z,963.01
2018-05-14T08:18:33.080Z,963.02
2018-05-14T08:19:33.127Z,963.01
2018-05-14T08:20:33.178Z,963.01
2018-05-14T08:21:33.245Z,963.02
2018-05-14T08:22:33.272Z,963.01
2018-05-14T08:23:33.326Z,962.99
2018-05-14T08:24:33.372Z,962.99
2018-05-14T08:25:33.418Z,962.97
2018-05-14T08:26:33.489Z,962.98
2018-05-14T08:27:34.093Z,962.98
2018-05-14T08:28:33.565Z,963.02
2018-05-14T08:29:33.616Z,962.98
2018-05-14T08:30:33.664Z,963.00
2018-05-14T08:31:33.738Z,962.97
2018-05-14T08:32:33.759Z,963.00
2018-05-14T08:33:33.807Z,963.00
2018-05-14T08:34:33.862Z,963.05
2018-05-14T08:35:33.907Z,963.06
2018-05-14T08:36:33.984Z,963.08
2018-05-14T08:37:34.004Z,963.07
2018-05-14T08:38:34.054Z,963.06
2018-05-14T08:39:34.102Z,963.05
2018-05-14T08:40:34.153Z,963.05
2018-05-14T08:41:34.229Z,963.06
2018-05-14T08:42:34.249Z,963.03
2018-05-14T08:43:34.297Z,963.03
2018-05-14T08:44:34.344Z,963.02
2018-05-14T08:45:34.395Z,963.00
2018-05-14T08:46:34.467Z,962.98
2018-05-14T08:47:34.490Z,962.96
2018-05-14T08:48:34.565Z,962.95
2018-05-14T08:49:34.590Z,962.95
2018-05-14T08:50:34.640Z,962.98
2018-05-14T08:51:34.686Z,963.00
2018-05-14T08:52:34.737Z,962.99
2018-05-14T08:53:34.806Z,962.98
2018-05-14T08:54:34.867Z,963.03
2018-05-14T08:55:34.886Z,963.02
2018-05-14T08:56:34.930Z,963.04
2018-05-14T08:57:35.022Z,963.07
2018-05-14T08:58:35.029Z,963.06
2018-05-14T08:59:35.076Z,963.02
2018-05-14T09:00:35.125Z,963.01
2018-05-14T09:01:35.175Z,963.00
2018-05-14T09:02:35.248Z,963.01
2018-05-14T09:03:35.298Z,962.98
2018-05-14T09:04:35.324Z,963.01
2018-05-14T09:05:35.368Z,963.02
2018-05-14T09:06:35.419Z,963.01
2018-05-14T09:07:35.471Z,963.00
2018-05-14T09:08:35.547Z,962.99
2018-05-14T09:09:35.563Z,962.95
2018-05-14T09:10:35.615Z,963.00
2018-05-14T09:11:35.665Z,963.00
2018-05-14T09:12:35.712Z,962.98
2018-05-14T09:13:35.782Z,962.94
2018-05-14T09:14:35.808Z,962.94
2018-05-14T09:15:35.857Z,962.99
2018-05-14T09:16:35.909Z,962.99
2018-05-14T09:17:35.954Z,963.02
2018-05-14T09:18:36.027Z,963.02
2018-05-14T09:19:36.258Z,963.05
2018-05-14T09:20:36.126Z,963.06
2018-05-14T09:21:36.151Z,963.05
2018-05-14T09:22:36.201Z,963.08
2018-05-14T09:23:36.248Z,963.09
2018-05-14T09:24:36.365Z,963.09
2018-05-14T09:25:36.456Z,963.13
2018-05-14T09:26:36.396Z,963.11
2018-05-14T09:27:36.444Z,963.12
2018-05-14T09:28:36.492Z,963.10
2018-05-14T09:29:36.543Z,963.16
2018-05-14T09:30:36.629Z,963.16
2018-05-14T09:31:36.640Z,963.18
2018-05-14T09:32:36.695Z,963.17
2018-05-14T09:33:36.737Z,963.21
2018-05-14T09:34:36.787Z,963.21
2018-05-14T09:35:36.858Z,963.20
2018-05-14T09:36:36.888Z,963.24
2018-05-14T09:37:36.958Z,963.22
2018-05-14T09:38:36.982Z,963.22
2018-05-14T09:39:37.033Z,963.23
2018-05-14T09:40:37.082Z,963.25
2018-05-14T09:41:37.128Z,963.21
2018-05-14T09:42:37.216Z,963.24
2018-05-14T09:43:37.231Z,963.24
2018-05-14T09:44:37.338Z,963.23
2018-05-14T09:45:37.323Z,963.21
2018-05-14T09:46:37.372Z,963.22
2018-05-14T09:47:37.448Z,963.24
2018-05-14T09:48:37.471Z,963.26
2018-05-14T09:49:37.518Z,963.30
2018-05-14T09:50:37.570Z,963.31
2018-05-14T09:51:37.616Z,963.28
2018-05-14T09:52:37.696Z,963.27
2018-05-14T09:53:37.743Z,963.28
2018-05-14T09:54:37.762Z,963.27
2018-05-14T09:55:37.813Z,963.24
2018-05-14T09:56:37.862Z,963.27
2018-05-14T09:57:37.953Z,963.24
2018-05-14T09:58:37.960Z,963.23
2018-05-14T09:59:38.009Z,963.21
2018-05-14T10:00:38.061Z,963.22
2018-05-14T10:01:38.102Z,963.25
2018-05-14T10:02:38.184Z,963.22
2018-05-14T10:03:38.201Z,963.27
2018-05-14T10:04:38.281Z,963.28
2018-05-14T10:05:38.297Z,963.26
2018-05-14T10:06:38.346Z,963.28
2018-05-14T10:07:38.399Z,963.30
2018-05-14T10:08:38.445Z,963.30
2018-05-14T10:09:38.525Z,963.35
2018-05-14T10:10:38.545Z,963.36
2018-05-14T10:11:38.592Z,963.39
2018-05-14T10:12:38.643Z,963.38
2018-05-14T10:13:38.714Z,963.41
2018-05-14T10:14:38.736Z,963.42
2018-05-14T10:15:38.895Z,963.46
2018-05-14T10:16:38.836Z,963.46
2018-05-14T10:17:38.884Z,963.39
2018-05-14T10:18:38.987Z,963.47
2018-05-14T10:19:38.988Z,963.44
2018-05-14T10:20:39.057Z,963.47
2018-05-14T10:21:39.079Z,963.51
2018-05-14T10:22:39.129Z,963.52
2018-05-14T10:23:39.178Z,963.52
2018-05-14T10:24:39.288Z,963.52
2018-05-14T10:25:39.273Z,963.53
2018-05-14T10:26:39.323Z,963.53
2018-05-14T10:27:39.369Z,963.52
2018-05-14T10:28:39.421Z,963.51
2018-05-14T10:29:39.492Z,963.54
2018-05-14T10:30:39.519Z,963.53
2018-05-14T10:31:39.591Z,963.55
2018-05-14T10:32:39.618Z,963.52
2018-05-14T10:33:39.663Z,963.53
2018-05-14T10:34:39.744Z,963.51
2018-05-14T10:35:39.760Z,963.50
2018-05-14T10:36:39.813Z,963.46
2018-05-14T10:37:39.859Z,963.43
2018-05-14T10:38:39.912Z,963.48
2018-05-14T10:39:39.989Z,963.49
2018-05-14T10:40:40.060Z,963.46
2018-05-14T10:41:40.058Z,963.49
2018-05-14T10:42:40.109Z,963.46
2018-05-14T10:43:40.151Z,963.49
2018-05-14T10:44:40.227Z,963.54
2018-05-14T10:45:40.251Z,963.54
2018-05-14T10:46:40.315Z,963.56
2018-05-14T10:47:40.348Z,963.56
2018-05-14T10:48:40.428Z,963.55
2018-05-14T10:49:40.446Z,963.51
2018-05-14T10:50:40.519Z,963.52
2018-05-14T10:51:40.564Z,963.51
2018-05-14T10:52:40.593Z,963.47
2018-05-14T10:53:40.646Z,963.47
2018-05-14T10:54:40.713Z,963.49
2018-05-14T10:55:40.763Z,963.48
2018-05-14T10:56:40.793Z,963.46
2018-05-14T10:57:40.842Z,963.43
2018-05-14T10:58:40.957Z,963.44
2018-05-14T10:59:40.938Z,963.43
2018-05-14T11:00:41.010Z,963.43
2018-05-14T11:01:41.033Z,963.45
2018-05-14T11:02:41.086Z,963.46
2018-05-14T11:03:41.136Z,963.44
2018-05-14T11:04:41.185Z,963.43
2018-05-14T11:05:41.254Z,963.47
2018-05-14T11:06:41.304Z,963.44
2018-05-14T11:07:41.331Z,963.47
2018-05-14T11:08:41.379Z,963.46
2018-05-14T11:09:41.426Z,963.45
2018-05-14T11:10:41.520Z,963.49
2018-05-14T11:11:41.524Z,963.48
2018-05-14T11:12:41.582Z,963.47
2018-05-14T11:13:41.626Z,963.49
2018-05-14T11:14:41.674Z,963.52
2018-05-14T11:15:41.757Z,963.52
2018-05-14T11:16:41.777Z,963.50
2018-05-14T11:17:41.822Z,963.54
2018-05-14T11:18:41.884Z,963.55
2018-05-14T11:19:41.920Z,963.56
2018-05-14T11:20:41.997Z,963.56
2018-05-14T11:21:42.025Z,963.56
2018-05-14T11:22:42.097Z,963.58
2018-05-14T11:23:42.127Z,963.57
2018-05-14T11:24:42.168Z,963.57
2018-05-14T11:25:42.217Z,963.53
2018-05-14T11:26:42.294Z,963.54
2018-05-14T11:27:42.322Z,963.51
2018-05-14T11:28:42.368Z,963.53
2018-05-14T11:29:42.421Z,963.53
2018-05-14T11:30:42.464Z,963.51
2018-05-14T11:31:42.546Z,963.50
2018-05-14T11:32:42.568Z,963.54
2018-05-14T11:33:42.610Z,963.53
2018-05-14T11:34:42.662Z,963.53
2018-05-14T11:35:42.711Z,963.54
2018-05-14T11:36:42.784Z,963.56
2018-05-14T11:37:42.811Z,963.55
2018-05-14T11:38:42.884Z,963.62
2018-05-14T11:39:42.913Z,963.60
2018-05-14T11:40:42.960Z,963.57
2018-05-14T11:41:43.005Z,963.58
2018-05-14T11:42:43.061Z,963.60
2018-05-14T11:43:43.138Z,963.58
2018-05-14T11:44:43.155Z,963.59
2018-05-14T11:45:43.205Z,963.60
2018-05-14T11:46:43.255Z,963.61
2018-05-14T11:47:43.306Z,963.57
2018-05-14T11:48:43.380Z,963.61
2018-05-14T11:49:43.406Z,963.59
2018-05-14T11:50:43.507Z,963.68
2018-05-14T11:51:43.501Z,963.69
2018-05-14T11:52:43.575Z,963.72
2018-05-14T11:53:43.625Z,963.72
2018-05-14T11:54:43.649Z,963.73
2018-05-14T11:55:43.700Z,963.73
2018-05-14T11:56:43.808Z,963.74
2018-05-14T11:57:43.795Z,963.73
2018-05-14T11:58:43.881Z,963.75
2018-05-14T11:59:43.896Z,963.78
2018-05-14T12:00:43.944Z,963.82
2018-05-14T12:01:43.993Z,963.80
2018-05-14T12:02:44.063Z,963.80
2018-05-14T12:03:44.135Z,963.82
2018-05-14T12:04:44.144Z,963.79
2018-05-14T12:05:44.196Z,963.79
2018-05-14T12:06:44.241Z,963.76
2018-05-14T12:07:44.308Z,963.75
2018-05-14T12:08:44.374Z,963.78
2018-05-14T12:09:44.387Z,963.77
2018-05-14T12:10:44.440Z,963.78
2018-05-14T12:11:44.486Z,963.78
2018-05-14T12:12:44.538Z,963.79
2018-05-14T12:13:44.610Z,963.77
2018-05-14T12:14:44.634Z,963.74
2018-05-14T12:15:44.684Z,963.75
2018-05-14T12:16:44.733Z,963.77
2018-05-14T12:17:44.780Z,963.77
2018-05-14T12:18:44.855Z,963.79
2018-05-14T12:19:44.906Z,963.79
2018-05-14T12:20:44.931Z,963.76
2018-05-14T12:21:44.980Z,963.76
2018-05-14T12:22:45.033Z,963.78
2018-05-14T12:23:45.081Z,963.76
2018-05-14T12:24:45.168Z,963.78
2018-05-14T12:25:45.232Z,963.74
2018-05-14T12:26:45.225Z,963.74
2018-05-14T12:27:45.273Z,963.68
2018-05-14T12:28:45.323Z,963.72